Weather at Prince Rupert/Seal Cove Seaplane Base

Public forecast

Using degrees Celsius for public forecast. Weather courtesy of forecast.io.

Closest aviation weather report (METAR) to Prince Rupert/Seal Cove Seaplane Base

Closest report is Prince Rupert Airport, 6.3 nm (11.7 km) WSW. Retrieved 2020/11/27 16:00 UTC (2 minutes ago):

CYPR 271600Z AUTO 12002KT 9SM OVC170 01/01 A2977 RMK SLP082

Closest aviation forecast (TAF) to Prince Rupert/Seal Cove Seaplane Base

Closest forecast is Prince Rupert Airport, 6.3 nm (11.7 km) WSW. Retrieved 2020/11/27 13:42 UTC (2 hours ago):

TAF CYPR 271238Z 2713/2801 06005KT P6SM SCT020 BKN240 RMK FCST BASED ON AUTO OBS NXT FCST BY 271900Z